createdAt,value
2023-03-07T00:01:04.753Z,82.68
2023-03-07T00:06:08.484Z,82.25
2023-03-07T00:11:10.461Z,82.41
2023-03-07T00:16:14.820Z,82.19
2023-03-07T00:21:17.336Z,81.85
2023-03-07T00:26:19.584Z,81.81
2023-03-07T00:31:23.783Z,81.73
2023-03-07T00:36:25.465Z,81.44
2023-03-07T00:41:27.986Z,82.07
2023-03-07T00:46:30.141Z,81.06
2023-03-07T00:51:31.072Z,81.11
2023-03-07T00:56:32.205Z,80.97
2023-03-07T01:01:34.245Z,81.29
2023-03-07T01:06:35.668Z,81.75
2023-03-07T01:11:37.398Z,81.95
2023-03-07T01:16:39.861Z,81.47
2023-03-07T01:21:42.661Z,81.82
2023-03-07T01:26:43.877Z,81.30
2023-03-07T01:31:46.533Z,81.52
2023-03-07T01:36:47.317Z,81.73
2023-03-07T01:41:48.033Z,81.80
2023-03-07T01:46:54.301Z,81.65
2023-03-07T01:52:02.212Z,81.81
2023-03-07T01:57:04.654Z,82.13
2023-03-07T02:02:11.925Z,82.73
2023-03-07T02:07:14.461Z,83.38
2023-03-07T02:12:16.677Z,83.35
2023-03-07T02:17:19.045Z,83.80
2023-03-07T02:22:20.572Z,83.66
2023-03-07T02:27:25.491Z,83.96
2023-03-07T02:32:26.727Z,83.59
2023-03-07T02:37:32.490Z,82.33
2023-03-07T02:42:38.557Z,81.55
2023-03-07T02:47:43.822Z,80.93
2023-03-07T02:52:47.201Z,79.52
2023-03-07T02:57:49.371Z,79.33
2023-03-07T03:02:50.200Z,78.91
2023-03-07T03:07:53.745Z,78.58
2023-03-07T03:12:55.755Z,78.45
2023-03-07T03:17:57.672Z,77.79
2023-03-07T03:22:58.479Z,77.66
2023-03-07T03:28:00.797Z,77.36
2023-03-07T03:33:02.709Z,78.06
2023-03-07T03:38:05.614Z,77.21
2023-03-07T03:43:07.915Z,77.73
2023-03-07T03:48:08.669Z,78.27
2023-03-07T03:53:09.467Z,76.87
2023-03-07T03:58:12.144Z,76.37
2023-03-07T04:03:12.895Z,76.37
2023-03-07T04:08:13.640Z,76.03
2023-03-07T04:13:16.384Z,75.91
2023-03-07T04:18:17.644Z,75.55
2023-03-07T04:23:18.717Z,76.16
2023-03-07T04:28:20.774Z,76.07
2023-03-07T04:33:21.763Z,75.48
2023-03-07T04:38:23.233Z,75.53
2023-03-07T04:43:25.472Z,75.09
2023-03-07T04:48:26.260Z,75.73
2023-03-07T04:53:27.325Z,76.02
2023-03-07T04:58:29.985Z,76.31
2023-03-07T05:03:31.509Z,75.84
2023-03-07T05:08:33.060Z,76.20
2023-03-07T05:13:35.869Z,75.40
2023-03-07T05:18:36.615Z,75.27
2023-03-07T05:23:37.579Z,74.53
2023-03-07T05:28:39.903Z,73.80
2023-03-07T05:33:42.644Z,74.69
2023-03-07T05:38:43.730Z,73.60
2023-03-07T05:43:45.924Z,73.06
2023-03-07T05:48:46.835Z,72.00
2023-03-07T05:53:47.790Z,72.51
2023-03-07T05:58:49.921Z,72.26
2023-03-07T06:03:50.840Z,71.92
2023-03-07T06:08:51.861Z,71.70
2023-03-07T06:13:54.254Z,71.41
2023-03-07T06:18:55.993Z,70.81
2023-03-07T06:23:57.566Z,69.16
2023-03-07T06:29:00.609Z,68.25
2023-03-07T06:34:01.359Z,67.38
2023-03-07T06:39:02.182Z,67.29
2023-03-07T06:44:04.363Z,66.73
2023-03-07T06:49:06.753Z,68.46
2023-03-07T06:54:08.117Z,68.68
2023-03-07T06:59:11.015Z,69.80
2023-03-07T07:04:12.113Z,69.98
2023-03-07T07:09:15.365Z,69.31
2023-03-07T07:14:17.538Z,68.90
2023-03-07T07:19:19.249Z,68.75
2023-03-07T07:24:20.669Z,68.87
2023-03-07T07:29:22.872Z,68.97
2023-03-07T07:34:25.022Z,69.05
2023-03-07T07:39:25.800Z,69.03
2023-03-07T07:44:30.819Z,70.21
2023-03-07T07:49:33.615Z,69.58
2023-03-07T07:54:34.518Z,70.41
2023-03-07T07:59:36.713Z,70.62
2023-03-07T08:04:39.698Z,71.80
2023-03-07T08:09:40.547Z,72.28
2023-03-07T08:14:42.571Z,72.36
2023-03-07T08:19:43.254Z,70.72
2023-03-07T08:24:43.951Z,72.76
2023-03-07T08:29:49.402Z,71.58
2023-03-07T08:34:50.103Z,71.14
2023-03-07T08:39:50.990Z,71.24
2023-03-07T08:44:54.170Z,70.08
2023-03-07T08:49:54.867Z,69.40
2023-03-07T08:54:55.812Z,67.73
2023-03-07T08:59:57.849Z,68.70
2023-03-07T09:05:00.679Z,66.44
2023-03-07T09:10:01.514Z,67.29
2023-03-07T09:15:03.691Z,65.01
2023-03-07T09:20:04.928Z,64.27
2023-03-07T09:25:06.380Z,63.84
2023-03-07T09:30:10.067Z,62.50
2023-03-07T09:35:11.381Z,64.07
2023-03-07T09:40:18.988Z,64.12
2023-03-07T09:45:31.830Z,63.52
2023-03-07T09:50:50.897Z,63.16
2023-03-07T09:55:54.527Z,63.89
2023-03-07T10:01:01.445Z,63.42
2023-03-07T10:06:09.203Z,62.81
2023-03-07T10:11:24.098Z,63.04
2023-03-07T10:16:37.118Z,62.99
2023-03-07T10:21:45.446Z,61.96
2023-03-07T10:26:54.579Z,62.57
2023-03-07T10:32:00.508Z,61.17
2023-03-07T10:37:09.156Z,61.46
2023-03-07T10:42:12.904Z,61.20
2023-03-07T10:47:21.273Z,60.99
2023-03-07T10:52:31.649Z,60.93
2023-03-07T10:57:32.409Z,60.48
2023-03-07T11:02:36.712Z,57.60
2023-03-07T11:07:38.067Z,57.24
2023-03-07T11:12:47.152Z,57.15
2023-03-07T11:17:50.639Z,56.34
2023-03-07T11:22:52.355Z,55.96
2023-03-07T11:27:55.493Z,52.94
2023-03-07T11:33:16.631Z,53.67
2023-03-07T11:38:26.469Z,54.82
2023-03-07T11:43:42.720Z,54.58
2023-03-07T11:48:57.777Z,55.72
2023-03-07T11:54:11.255Z,56.14
2023-03-07T11:59:50.969Z,56.02
2023-03-07T12:05:19.282Z,54.32
2023-03-07T12:10:32.504Z,54.55
2023-03-07T12:15:38.994Z,53.81
2023-03-07T12:20:49.404Z,53.35
2023-03-07T12:25:54.870Z,53.77
2023-03-07T12:31:07.283Z,52.82
2023-03-07T12:36:17.543Z,52.80
2023-03-07T12:41:26.937Z,51.91
2023-03-07T12:46:38.843Z,51.67
2023-03-07T12:51:46.664Z,50.68
2023-03-07T12:56:54.531Z,50.68
2023-03-07T13:02:02.459Z,49.71
2023-03-07T13:07:10.518Z,49.28
2023-03-07T13:12:27.167Z,49.83
2023-03-07T13:18:00.676Z,50.18
2023-03-07T13:23:26.882Z,50.40
2023-03-07T13:28:46.747Z,50.13
2023-03-07T13:33:47.890Z,50.43
2023-03-07T13:38:49.963Z,50.13
2023-03-07T13:44:02.636Z,50.07
2023-03-07T13:49:04.004Z,49.81
2023-03-07T13:54:11.242Z,49.52
2023-03-07T13:59:27.637Z,51.11
2023-03-07T14:04:40.343Z,50.71
2023-03-07T14:09:47.985Z,50.95
2023-03-07T14:14:59.924Z,51.92
2023-03-07T14:20:11.548Z,52.23
2023-03-07T14:25:21.667Z,51.77
2023-03-07T14:30:24.397Z,51.83
2023-03-07T14:35:36.850Z,52.41
2023-03-07T14:40:49.486Z,52.99
2023-03-07T14:45:56.087Z,54.70
2023-03-07T14:51:14.489Z,55.89
2023-03-07T14:56:23.737Z,54.26
2023-03-07T15:01:31.687Z,55.00
2023-03-07T15:06:44.557Z,54.18
2023-03-07T15:11:53.576Z,53.55
2023-03-07T15:16:57.614Z,53.56
2023-03-07T15:22:02.078Z,53.99
2023-03-07T15:27:06.492Z,52.69
2023-03-07T15:32:08.354Z,52.64
2023-03-07T15:37:22.625Z,52.51
2023-03-07T15:42:24.639Z,52.05
2023-03-07T15:47:27.204Z,52.28
2023-03-07T15:52:31.160Z,51.92
2023-03-07T15:57:38.939Z,51.80
2023-03-07T16:02:44.023Z,51.54
2023-03-07T16:07:45.366Z,51.69
2023-03-07T16:12:49.302Z,52.03
2023-03-07T16:17:54.155Z,51.29
2023-03-07T16:22:55.556Z,51.93
2023-03-07T16:28:00.039Z,52.85
2023-03-07T16:33:00.756Z,52.20
2023-03-07T16:38:01.648Z,52.01
2023-03-07T16:43:03.705Z,51.31
2023-03-07T16:48:04.583Z,52.12
2023-03-07T16:53:06.290Z,52.30
2023-03-07T16:58:19.957Z,52.19
2023-03-07T17:03:23.026Z,55.76
2023-03-07T17:08:24.050Z,61.56
2023-03-07T17:13:26.189Z,68.95
2023-03-07T17:18:29.558Z,71.92
2023-03-07T17:23:30.289Z,74.23
2023-03-07T17:28:35.617Z,76.15
2023-03-07T17:33:36.368Z,78.78
2023-03-07T17:38:37.099Z,80.07
2023-03-07T17:43:39.138Z,80.96
2023-03-07T17:48:39.921Z,83.00
2023-03-07T17:53:40.635Z,83.44
2023-03-07T17:58:43.112Z,84.28
2023-03-07T18:03:44.046Z,83.89
2023-03-07T18:08:44.740Z,83.88
2023-03-07T18:13:46.859Z,83.49
2023-03-07T18:18:58.226Z,83.81
2023-03-07T18:23:59.791Z,83.43
2023-03-07T18:29:01.782Z,83.44
2023-03-07T18:34:04.501Z,83.35
2023-03-07T18:39:05.632Z,83.42
2023-03-07T18:44:08.085Z,83.71
2023-03-07T18:49:09.348Z,83.99
2023-03-07T18:54:11.031Z,83.93
2023-03-07T18:59:13.094Z,83.92
2023-03-07T19:04:13.788Z,84.50
2023-03-07T19:09:16.249Z,84.27
2023-03-07T19:14:18.554Z,84.48
2023-03-07T19:19:19.262Z,84.53
2023-03-07T19:24:19.937Z,84.92
2023-03-07T19:29:21.960Z,84.78
2023-03-07T19:34:22.632Z,84.87
2023-03-07T19:39:23.354Z,84.45
2023-03-07T19:44:25.536Z,85.35
2023-03-07T19:49:26.909Z,85.64
2023-03-07T19:54:27.634Z,85.26
2023-03-07T19:59:29.657Z,85.76
2023-03-07T20:04:30.443Z,85.24
2023-03-07T20:09:31.359Z,85.43
2023-03-07T20:14:33.462Z,85.94
2023-03-07T20:19:34.307Z,86.06
2023-03-07T20:24:36.149Z,86.14
2023-03-07T20:29:38.199Z,85.81
2023-03-07T20:34:38.900Z,85.26
2023-03-07T20:39:41.275Z,84.81
2023-03-07T20:44:43.313Z,85.04
2023-03-07T20:49:44.058Z,84.41
2023-03-07T20:54:45.115Z,83.49
2023-03-07T20:59:47.168Z,84.29
2023-03-07T21:04:49.873Z,84.95
2023-03-07T21:09:51.879Z,83.96
2023-03-07T21:14:53.882Z,83.57
2023-03-07T21:19:54.640Z,84.49
2023-03-07T21:24:55.394Z,84.95
2023-03-07T21:29:57.356Z,85.93
2023-03-07T21:34:58.205Z,85.92
2023-03-07T21:39:59.137Z,85.88
2023-03-07T21:45:01.480Z,86.15
2023-03-07T21:50:02.208Z,86.19
2023-03-07T21:55:03.061Z,86.28
2023-03-07T22:00:08.330Z,85.96
2023-03-07T22:05:09.722Z,86.35
2023-03-07T22:10:11.685Z,86.43
2023-03-07T22:15:13.849Z,86.06
2023-03-07T22:20:14.556Z,86.62
2023-03-07T22:25:15.205Z,86.80
2023-03-07T22:30:18.207Z,87.37
2023-03-07T22:35:18.956Z,87.17
2023-03-07T22:40:20.244Z,87.09
2023-03-07T22:45:22.329Z,87.19
2023-03-07T22:50:23.122Z,87.70
2023-03-07T22:55:23.905Z,88.83
2023-03-07T23:00:26.002Z,88.91
2023-03-07T23:05:26.691Z,88.94
2023-03-07T23:10:28.557Z,89.32
2023-03-07T23:15:30.744Z,89.58
2023-03-07T23:20:32.450Z,89.10
2023-03-07T23:25:34.069Z,88.98
2023-03-07T23:30:37.940Z,88.81
2023-03-07T23:35:38.623Z,89.26
2023-03-07T23:40:39.353Z,90.03
2023-03-07T23:45:41.469Z,89.99
2023-03-07T23:50:42.149Z,89.76
2023-03-07T23:55:43.262Z,89.47
